Columbus, Arkansas
Current Conditions -  °F | °C
As of 1:53 PM on Thursday 29 Jan 2015 (Local Time) from KTXK Reporting Station
Clear Clear  
Wind Chill: 68°   Ceiling: Unl
Heat Index: 68°   Visibility: 10mi
Dew Point: 39°   Wind: 13mph
Humidity: 35%   Direction: 340°NNW
Pressure: 30.19"   Gusts: NA
Location:  33.78°N, 93.82°W
Report Text: KTXK 291953Z 34011KT 10SM CLR 20/04 A3019 RMK AO2 SLP222 T02000039
Loading
Personal Weather Stations






























Interactive Weather Map New forecast layout! Learn more

10-Day Weather Forecast

Advertisements
Track Severe Weather on mobile